createdAt,value
2017-10-04T00:00:35.725Z,1018.6
2017-10-04T00:05:40.452Z,1018.5
2017-10-04T00:10:45.844Z,1018.5
2017-10-04T00:15:50.905Z,1018.5
2017-10-04T00:20:56.293Z,1018.6
2017-10-04T00:26:01.683Z,1018.6
2017-10-04T00:31:06.743Z,1018.3
2017-10-04T00:36:11.796Z,1018.3
2017-10-04T00:41:17.521Z,1018.3
2017-10-04T00:46:22.579Z,1018.3
2017-10-04T00:51:27.970Z,1018.4
2017-10-04T00:56:33.363Z,1018.3
2017-10-04T01:01:38.753Z,1018.4
2017-10-04T01:06:43.482Z,1018.4
2017-10-04T01:11:48.871Z,1018.4
2017-10-04T01:16:54.265Z,1018.4
2017-10-04T01:21:58.984Z,1018.4
2017-10-04T01:27:03.710Z,1018.1
2017-10-04T01:32:08.100Z,1018.1
2017-10-04T01:37:13.158Z,1018.2
2017-10-04T01:42:17.212Z,1018.2
2017-10-04T01:47:22.267Z,1018.3
2017-10-04T01:52:27.662Z,1018.2
2017-10-04T01:57:33.393Z,1018.2
2017-10-04T02:02:38.116Z,1018.3
2017-10-04T02:07:43.173Z,1018.3
2017-10-04T02:12:48.900Z,1018.3
2017-10-04T02:17:54.968Z,1018.2
2017-10-04T02:23:00.359Z,1018.3
2017-10-04T02:28:05.755Z,1018.3
2017-10-04T02:33:10.812Z,1018.3
2017-10-04T02:38:16.208Z,1018.2
2017-10-04T02:43:21.600Z,1018.1
2017-10-04T02:48:25.988Z,1018.2
2017-10-04T02:53:30.710Z,1018
2017-10-04T02:58:36.101Z,1017.9
2017-10-04T03:03:41.492Z,1018
2017-10-04T03:08:47.222Z,1018
2017-10-04T03:13:52.951Z,1017.8
2017-10-04T03:18:58.010Z,1017.6
2017-10-04T03:24:03.739Z,1017.6
2017-10-04T03:29:09.466Z,1017.5
2017-10-04T03:34:14.188Z,1017.4
2017-10-04T03:39:18.909Z,1017.4
2017-10-04T03:44:24.979Z,1017.4
2017-10-04T03:49:30.373Z,1017.2
2017-10-04T03:54:34.757Z,1017.2
2017-10-04T03:59:39.482Z,1017
2017-10-04T04:04:45.206Z,1017
2017-10-04T04:09:49.934Z,1016.9
2017-10-04T04:14:54.661Z,1016.8
2017-10-04T04:19:59.743Z,1016.9
2017-10-04T04:25:05.140Z,1016.8
2017-10-04T04:30:09.529Z,1016.8
2017-10-04T04:35:14.923Z,1016.8
2017-10-04T04:40:19.994Z,1016.7
2017-10-04T04:45:25.389Z,1016.8
2017-10-04T04:50:30.135Z,1016.8
2017-10-04T04:55:34.861Z,1016.7
2017-10-04T05:00:39.932Z,1016.7
2017-10-04T05:05:45.352Z,1016.7
2017-10-04T05:10:50.077Z,1016.8
2017-10-04T05:15:55.470Z,1016.6
2017-10-04T05:21:00.545Z,1016.6
2017-10-04T05:26:06.298Z,1016.5
2017-10-04T05:31:11.690Z,1016.5
2017-10-04T05:36:16.413Z,1016.5
2017-10-04T05:41:21.818Z,1016.6
2017-10-04T05:46:26.881Z,1016.6
2017-10-04T05:51:32.273Z,1016.7
2017-10-04T05:56:37.666Z,1016.7
2017-10-04T06:01:42.724Z,1016.7
2017-10-04T06:06:48.120Z,1016.6
2017-10-04T06:11:52.510Z,1016.6
2017-10-04T06:16:57.570Z,1016.6
2017-10-04T06:22:03.300Z,1016.7
2017-10-04T06:27:08.514Z,1016.7
2017-10-04T06:32:12.567Z,1016.6
2017-10-04T06:37:17.306Z,1016.6
2017-10-04T06:42:22.366Z,1016.5
2017-10-04T06:47:26.755Z,1016.5
2017-10-04T06:52:31.815Z,1016.5
2017-10-04T06:57:36.874Z,1016.4
2017-10-04T07:02:42.272Z,1016.3
2017-10-04T07:07:47.329Z,1016.2
2017-10-04T07:12:52.395Z,1016.1
2017-10-04T07:17:58.126Z,1016.1
2017-10-04T07:23:03.188Z,1016.1
2017-10-04T07:28:08.253Z,1016.1
2017-10-04T07:33:13.314Z,1016.2
2017-10-04T07:38:18.704Z,1016.1
2017-10-04T07:43:24.249Z,1016.1
2017-10-04T07:48:29.975Z,1016
2017-10-04T07:53:34.705Z,1016
2017-10-04T07:58:40.769Z,1016.1
2017-10-04T08:03:46.502Z,1016.1
2017-10-04T08:08:51.562Z,1016.1
2017-10-04T08:13:56.963Z,1015.9
2017-10-04T08:19:02.028Z,1015.9
2017-10-04T08:24:07.761Z,1015.8
2017-10-04T08:29:13.156Z,1015.9
2017-10-04T08:34:18.553Z,1015.8
2017-10-04T08:39:23.529Z,1015.9
2017-10-04T08:44:28.928Z,1016
2017-10-04T08:49:34.319Z,1015.8
2017-10-04T08:54:39.377Z,1015.8
2017-10-04T08:59:45.443Z,1015.9
2017-10-04T09:04:49.835Z,1015.9
2017-10-04T09:09:54.898Z,1016
2017-10-04T09:15:00.294Z,1016
2017-10-04T09:20:05.688Z,1016.2
2017-10-04T09:25:11.750Z,1016
2017-10-04T09:30:17.477Z,1015.7
2017-10-04T09:35:23.212Z,1015.6
2017-10-04T09:40:27.935Z,1015.6
2017-10-04T09:45:32.995Z,1015.4
2017-10-04T09:50:38.390Z,1015.4
2017-10-04T09:55:43.113Z,1015.3
2017-10-04T10:00:48.510Z,1015.3
2017-10-04T10:05:53.571Z,1015.3
2017-10-04T10:10:58.310Z,1015.2
2017-10-04T10:16:03.715Z,1015.3
2017-10-04T10:21:09.477Z,1015.3
2017-10-04T10:26:15.261Z,1015.2
2017-10-04T10:31:20.653Z,1015.2
2017-10-04T10:36:26.053Z,1015.3
2017-10-04T10:41:31.783Z,1015.3
2017-10-04T10:46:37.181Z,1015.3
2017-10-04T10:51:42.574Z,1015.4
2017-10-04T10:56:47.328Z,1015.3
2017-10-04T11:01:52.750Z,1015.3
2017-10-04T11:06:57.807Z,1015.2
2017-10-04T11:12:03.201Z,1015.1
2017-10-04T11:17:08.261Z,1015
2017-10-04T11:22:13.995Z,1014.7
2017-10-04T11:27:19.402Z,1014.8
2017-10-04T11:32:24.129Z,1014.7
2017-10-04T11:37:28.856Z,1014.7
2017-10-04T11:42:34.252Z,1014.7
2017-10-04T11:47:39.315Z,1014.6
2017-10-04T11:52:44.375Z,1014.5
2017-10-04T11:57:50.110Z,1014.4
2017-10-04T12:02:54.842Z,1014.4
2017-10-04T12:07:59.910Z,1014.3
2017-10-04T12:13:05.648Z,1014.2
2017-10-04T12:18:10.369Z,1014.1
2017-10-04T12:23:16.099Z,1014.1
2017-10-04T12:28:20.824Z,1014.1
2017-10-04T12:33:25.550Z,1014
2017-10-04T12:38:31.296Z,1014
2017-10-04T12:43:36.344Z,1014
2017-10-04T12:48:42.417Z,1013.9
2017-10-04T12:53:47.815Z,1013.8
2017-10-04T12:58:53.313Z,1013.9
2017-10-04T13:03:59.380Z,1013.7
2017-10-04T13:09:03.772Z,1013.6
2017-10-04T13:14:08.168Z,1013.5
2017-10-04T13:19:13.994Z,1013.5
2017-10-04T13:24:19.394Z,1013.5
2017-10-04T13:29:25.123Z,1013.5
2017-10-04T13:34:30.180Z,1013.4
2017-10-04T13:39:35.911Z,1013.3
2017-10-04T13:44:40.964Z,1013.2
2017-10-04T13:49:46.361Z,1013.2
2017-10-04T13:54:51.419Z,1013.2
2017-10-04T13:59:56.474Z,1013.2
2017-10-04T14:05:01.880Z,1013
2017-10-04T14:10:07.605Z,1012.9
2017-10-04T14:15:12.668Z,1012.8
2017-10-04T14:20:17.412Z,1012.8
2017-10-04T14:25:21.803Z,1012.8
2017-10-04T14:30:26.880Z,1012.7
2017-10-04T14:35:32.285Z,1012.7
2017-10-04T14:40:37.371Z,1012.9
2017-10-04T14:45:42.799Z,1012.9
2017-10-04T14:50:48.199Z,1012.5
2017-10-04T14:55:53.939Z,1012.6
2017-10-04T15:00:59.344Z,1012.6
2017-10-04T15:06:04.743Z,1012.6
2017-10-04T15:11:10.479Z,1012.6
2017-10-04T15:16:16.218Z,1012.6
2017-10-04T15:21:21.287Z,1012.5
2017-10-04T15:26:26.349Z,1012.5
2017-10-04T15:31:31.764Z,1012.3
2017-10-04T15:36:37.850Z,1012.4
2017-10-04T15:41:43.254Z,1012.3
2017-10-04T15:46:48.315Z,1012.2
2017-10-04T15:51:53.050Z,1012.2
2017-10-04T15:56:58.119Z,1012.1
2017-10-04T16:02:03.193Z,1012.1
2017-10-04T16:07:08.078Z,1012.1
2017-10-04T16:12:13.474Z,1012.1
2017-10-04T16:17:18.873Z,1012
2017-10-04T16:22:23.934Z,1011.9
2017-10-04T16:27:28.658Z,1012.1
2017-10-04T16:32:33.717Z,1012
2017-10-04T16:37:38.790Z,1011.8
2017-10-04T16:42:43.414Z,1011.8
2017-10-04T16:47:48.473Z,1011.9
2017-10-04T16:52:53.205Z,1011.9
2017-10-04T16:57:58.262Z,1011.8
2017-10-04T17:03:03.323Z,1011.9
2017-10-04T17:08:08.728Z,1011.8
2017-10-04T17:13:14.126Z,1011.8
2017-10-04T17:18:19.857Z,1011.6
2017-10-04T17:23:24.924Z,1011.7
2017-10-04T17:28:30.657Z,1011.7
2017-10-04T17:33:35.723Z,1011.9
2017-10-04T17:38:41.460Z,1011.8
2017-10-04T17:43:47.196Z,1011.7
2017-10-04T17:48:51.920Z,1011.7
2017-10-04T17:53:57.372Z,1011.5
2017-10-04T17:59:02.775Z,1011.5
2017-10-04T18:04:07.504Z,1011.6
2017-10-04T18:09:13.566Z,1011.5
2017-10-04T18:14:19.305Z,1011.7
2017-10-04T18:19:24.795Z,1011.7
2017-10-04T18:24:29.188Z,1011.6
2017-10-04T18:29:34.929Z,1011.5
2017-10-04T18:34:39.994Z,1011.6
2017-10-04T18:39:45.057Z,1011.5
2017-10-04T18:44:50.121Z,1011.5
2017-10-04T18:49:55.532Z,1011.6
2017-10-04T18:55:00.940Z,1011.5
2017-10-04T19:00:06.359Z,1011.4
2017-10-04T19:05:12.101Z,1011.5
2017-10-04T19:10:17.532Z,1011.5
2017-10-04T19:15:23.274Z,1011.5
2017-10-04T19:20:28.012Z,1011.4
2017-10-04T19:25:33.084Z,1011.5
2017-10-04T19:30:38.299Z,1011.3
2017-10-04T19:35:43.702Z,1011.2
2017-10-04T19:40:49.457Z,1011.2
2017-10-04T19:45:55.186Z,1011.3
2017-10-04T19:50:59.923Z,1011.1
2017-10-04T19:56:05.326Z,1011.1
2017-10-04T20:01:10.724Z,1011.1
2017-10-04T20:06:15.849Z,1011.3
2017-10-04T20:11:20.566Z,1011.1
2017-10-04T20:16:25.974Z,1011.3
2017-10-04T20:21:31.712Z,1011.1
2017-10-04T20:26:37.104Z,1011.2
2017-10-04T20:31:42.842Z,1011.3
2017-10-04T20:36:48.238Z,1011.2
2017-10-04T20:41:53.298Z,1011.2
2017-10-04T20:46:57.687Z,1011.1
2017-10-04T20:52:02.797Z,1011
2017-10-04T20:57:07.520Z,1011
2017-10-04T21:02:12.580Z,1011.1
2017-10-04T21:07:17.980Z,1011.1
2017-10-04T21:12:23.036Z,1010.9
2017-10-04T21:17:28.435Z,1011
2017-10-04T21:22:34.165Z,1010.8
2017-10-04T21:27:40.224Z,1010.5
2017-10-04T21:32:45.951Z,1010.6
2017-10-04T21:37:51.006Z,1010.8
2017-10-04T21:42:55.729Z,1010.7
2017-10-04T21:48:01.118Z,1010.7
2017-10-04T21:53:06.510Z,1010.6
2017-10-04T21:58:11.900Z,1010.6
2017-10-04T22:03:16.961Z,1010.3
2017-10-04T22:08:22.029Z,1010.4
2017-10-04T22:13:28.095Z,1010.3
2017-10-04T22:18:33.924Z,1010.3
2017-10-04T22:23:39.652Z,1010.2
2017-10-04T22:28:44.709Z,1010.1
2017-10-04T22:33:49.766Z,1009.9
2017-10-04T22:38:55.163Z,1009.9
2017-10-04T22:43:59.548Z,1009.9
2017-10-04T22:49:05.627Z,1010
2017-10-04T22:54:10.691Z,1009.8
2017-10-04T22:59:16.085Z,1009.7
2017-10-04T23:04:20.807Z,1009.6
2017-10-04T23:09:25.527Z,1009.6
2017-10-04T23:14:29.911Z,1009.6
2017-10-04T23:19:34.970Z,1009.6
2017-10-04T23:24:39.023Z,1009.5
2017-10-04T23:29:44.750Z,1009.4
2017-10-04T23:34:50.807Z,1009.3
2017-10-04T23:39:55.863Z,1009.3
2017-10-04T23:45:01.588Z,1009.3
2017-10-04T23:50:06.655Z,1009.1
2017-10-04T23:55:12.376Z,1008.9
